sensor_id;sensor_type;location;lat;lon;timestamp;temperature;humidity
13638;DHT22;6892;50.916;4.356;2022-10-16T00:00:08;13.50;99.90
13638;DHT22;6892;50.916;4.356;2022-10-16T00:02:37;13.50;99.90
13638;DHT22;6892;50.916;4.356;2022-10-16T00:05:05;13.40;99.90
13638;DHT22;6892;50.916;4.356;2022-10-16T00:07:32;13.40;99.90
13638;DHT22;6892;50.916;4.356;2022-10-16T00:09:59;13.40;99.90
13638;DHT22;6892;50.916;4.356;2022-10-16T00:12:26;13.50;99.90
13638;DHT22;6892;50.916;4.356;2022-10-16T00:14:52;13.50;99.90
13638;DHT22;6892;50.916;4.356;2022-10-16T00:17:19;13.50;99.90
13638;DHT22;6892;50.916;4.356;2022-10-16T00:19:46;13.50;99.90
13638;DHT22;6892;50.916;4.356;2022-10-16T00:22:14;13.40;99.90
13638;DHT22;6892;50.916;4.356;2022-10-16T00:24:41;13.50;99.90
13638;DHT22;6892;50.916;4.356;2022-10-16T00:27:07;13.50;99.90
13638;DHT22;6892;50.916;4.356;2022-10-16T00:29:34;13.50;99.90
13638;DHT22;6892;50.916;4.356;2022-10-16T00:32:01;13.50;99.90
13638;DHT22;6892;50.916;4.356;2022-10-16T00:34:27;13.50;99.90
13638;DHT22;6892;50.916;4.356;2022-10-16T00:36:54;13.40;99.90
13638;DHT22;6892;50.916;4.356;2022-10-16T00:39:22;13.30;99.90
13638;DHT22;6892;50.916;4.356;2022-10-16T00:41:50;13.40;99.90
13638;DHT22;6892;50.916;4.356;2022-10-16T00:47:02;13.40;99.90
13638;DHT22;6892;50.916;4.356;2022-10-16T00:49:29;13.30;99.90
13638;DHT22;6892;50.916;4.356;2022-10-16T00:51:55;13.20;99.90
13638;DHT22;6892;50.916;4.356;2022-10-16T00:54:24;13.30;99.90
13638;DHT22;6892;50.916;4.356;2022-10-16T00:56:51;13.20;99.90
13638;DHT22;6892;50.916;4.356;2022-10-16T00:59:20;13.10;99.90
13638;DHT22;6892;50.916;4.356;2022-10-16T01:01:49;13.10;99.90
13638;DHT22;6892;50.916;4.356;2022-10-16T01:04:16;13.10;99.90
13638;DHT22;6892;50.916;4.356;2022-10-16T01:06:46;13.10;99.90
13638;DHT22;6892;50.916;4.356;2022-10-16T01:09:16;13.10;99.90
13638;DHT22;6892;50.916;4.356;2022-10-16T01:11:50;13.10;99.90
13638;DHT22;6892;50.916;4.356;2022-10-16T01:14:21;13.00;99.90
13638;DHT22;6892;50.916;4.356;2022-10-16T01:16:49;13.00;99.90
13638;DHT22;6892;50.916;4.356;2022-10-16T01:19:20;13.00;99.90
13638;DHT22;6892;50.916;4.356;2022-10-16T01:21:52;13.00;99.90
13638;DHT22;6892;50.916;4.356;2022-10-16T01:24:23;13.00;99.90
13638;DHT22;6892;50.916;4.356;2022-10-16T01:27:10;13.00;99.90
13638;DHT22;6892;50.916;4.356;2022-10-16T01:29:39;13.00;99.90
13638;DHT22;6892;50.916;4.356;2022-10-16T01:32:09;12.90;99.90
13638;DHT22;6892;50.916;4.356;2022-10-16T01:34:37;12.90;99.90
13638;DHT22;6892;50.916;4.356;2022-10-16T01:37:05;12.80;99.90
13638;DHT22;6892;50.916;4.356;2022-10-16T01:39:34;12.80;99.90
13638;DHT22;6892;50.916;4.356;2022-10-16T01:42:03;12.80;99.90
13638;DHT22;6892;50.916;4.356;2022-10-16T01:44:33;12.80;99.90
13638;DHT22;6892;50.916;4.356;2022-10-16T01:47:01;12.70;99.90
13638;DHT22;6892;50.916;4.356;2022-10-16T01:49:30;12.80;99.90
13638;DHT22;6892;50.916;4.356;2022-10-16T01:51:58;12.80;99.90
13638;DHT22;6892;50.916;4.356;2022-10-16T01:54:25;12.70;99.90
13638;DHT22;6892;50.916;4.356;2022-10-16T01:56:54;12.80;99.90
13638;DHT22;6892;50.916;4.356;2022-10-16T01:59:21;12.80;99.90
13638;DHT22;6892;50.916;4.356;2022-10-16T02:01:51;12.80;99.90
13638;DHT22;6892;50.916;4.356;2022-10-16T02:04:20;12.80;99.90
13638;DHT22;6892;50.916;4.356;2022-10-16T02:06:48;12.80;99.90
13638;DHT22;6892;50.916;4.356;2022-10-16T02:09:15;12.80;99.90
13638;DHT22;6892;50.916;4.356;2022-10-16T02:11:42;12.80;99.90
13638;DHT22;6892;50.916;4.356;2022-10-16T02:14:09;12.80;99.90
13638;DHT22;6892;50.916;4.356;2022-10-16T02:16:37;12.80;99.90
13638;DHT22;6892;50.916;4.356;2022-10-16T02:19:06;12.80;99.90
13638;DHT22;6892;50.916;4.356;2022-10-16T02:21:34;12.80;99.90
13638;DHT22;6892;50.916;4.356;2022-10-16T02:24:07;12.90;99.90
13638;DHT22;6892;50.916;4.356;2022-10-16T02:26:35;12.90;99.90
13638;DHT22;6892;50.916;4.356;2022-10-16T02:29:04;12.90;99.90
13638;DHT22;6892;50.916;4.356;2022-10-16T02:31:34;12.80;99.90
13638;DHT22;6892;50.916;4.356;2022-10-16T02:34:02;12.80;99.90
13638;DHT22;6892;50.916;4.356;2022-10-16T02:36:31;12.90;99.90
13638;DHT22;6892;50.916;4.356;2022-10-16T02:38:58;12.80;99.90
13638;DHT22;6892;50.916;4.356;2022-10-16T02:41:26;12.80;99.90
13638;DHT22;6892;50.916;4.356;2022-10-16T02:43:53;12.80;99.90
13638;DHT22;6892;50.916;4.356;2022-10-16T02:46:21;12.80;99.90
13638;DHT22;6892;50.916;4.356;2022-10-16T02:48:48;12.80;99.90
13638;DHT22;6892;50.916;4.356;2022-10-16T02:51:14;12.70;99.90
13638;DHT22;6892;50.916;4.356;2022-10-16T02:53:42;12.70;99.90
13638;DHT22;6892;50.916;4.356;2022-10-16T02:56:09;12.70;99.90
13638;DHT22;6892;50.916;4.356;2022-10-16T02:58:38;12.70;99.90
13638;DHT22;6892;50.916;4.356;2022-10-16T03:01:05;12.70;99.90
13638;DHT22;6892;50.916;4.356;2022-10-16T03:03:31;12.70;99.90
13638;DHT22;6892;50.916;4.356;2022-10-16T03:05:59;12.80;99.90
13638;DHT22;6892;50.916;4.356;2022-10-16T03:08:26;12.80;99.90
13638;DHT22;6892;50.916;4.356;2022-10-16T03:10:54;12.90;99.90
13638;DHT22;6892;50.916;4.356;2022-10-16T03:13:21;12.90;99.90
13638;DHT22;6892;50.916;4.356;2022-10-16T03:15:48;12.90;99.90
13638;DHT22;6892;50.916;4.356;2022-10-16T03:18:15;12.90;99.90
13638;DHT22;6892;50.916;4.356;2022-10-16T03:20:42;12.90;99.90
13638;DHT22;6892;50.916;4.356;2022-10-16T03:23:08;13.00;99.90
13638;DHT22;6892;50.916;4.356;2022-10-16T03:25:35;13.00;99.90
13638;DHT22;6892;50.916;4.356;2022-10-16T03:28:03;12.90;99.90
13638;DHT22;6892;50.916;4.356;2022-10-16T03:30:30;12.90;99.90
13638;DHT22;6892;50.916;4.356;2022-10-16T03:32:57;12.90;99.90
13638;DHT22;6892;50.916;4.356;2022-10-16T03:35:24;12.90;99.90
13638;DHT22;6892;50.916;4.356;2022-10-16T03:37:51;12.90;99.90
13638;DHT22;6892;50.916;4.356;2022-10-16T03:40:18;12.90;99.90
13638;DHT22;6892;50.916;4.356;2022-10-16T03:42:45;12.90;99.90
13638;DHT22;6892;50.916;4.356;2022-10-16T03:45:13;12.90;99.90
13638;DHT22;6892;50.916;4.356;2022-10-16T03:47:40;12.90;99.90
13638;DHT22;6892;50.916;4.356;2022-10-16T03:50:07;12.90;99.90
13638;DHT22;6892;50.916;4.356;2022-10-16T03:52:34;12.90;99.90
13638;DHT22;6892;50.916;4.356;2022-10-16T03:55:01;12.90;99.90
13638;DHT22;6892;50.916;4.356;2022-10-16T03:57:27;12.90;99.90
13638;DHT22;6892;50.916;4.356;2022-10-16T03:59:54;12.90;99.90
13638;DHT22;6892;50.916;4.356;2022-10-16T04:02:22;12.80;99.90
13638;DHT22;6892;50.916;4.356;2022-10-16T04:04:49;12.80;99.90
13638;DHT22;6892;50.916;4.356;2022-10-16T04:07:16;12.80;99.90
13638;DHT22;6892;50.916;4.356;2022-10-16T04:09:42;12.80;99.90
13638;DHT22;6892;50.916;4.356;2022-10-16T04:12:09;12.80;99.90
13638;DHT22;6892;50.916;4.356;2022-10-16T04:14:36;12.80;99.90
13638;DHT22;6892;50.916;4.356;2022-10-16T04:17:03;12.70;99.90
13638;DHT22;6892;50.916;4.356;2022-10-16T04:19:31;12.80;99.90
13638;DHT22;6892;50.916;4.356;2022-10-16T04:21:58;12.80;99.90
13638;DHT22;6892;50.916;4.356;2022-10-16T04:24:24;12.80;99.90
13638;DHT22;6892;50.916;4.356;2022-10-16T04:26:51;12.70;99.90
13638;DHT22;6892;50.916;4.356;2022-10-16T04:29:18;12.70;99.90
13638;DHT22;6892;50.916;4.356;2022-10-16T04:31:45;12.70;99.90
13638;DHT22;6892;50.916;4.356;2022-10-16T04:34:11;12.70;99.90
13638;DHT22;6892;50.916;4.356;2022-10-16T04:36:40;12.70;99.90
13638;DHT22;6892;50.916;4.356;2022-10-16T04:39:07;12.70;99.90
13638;DHT22;6892;50.916;4.356;2022-10-16T04:41:34;12.70;99.90
13638;DHT22;6892;50.916;4.356;2022-10-16T04:44:01;12.70;99.90
13638;DHT22;6892;50.916;4.356;2022-10-16T04:46:28;12.70;99.90
13638;DHT22;6892;50.916;4.356;2022-10-16T04:48:54;12.70;99.90
13638;DHT22;6892;50.916;4.356;2022-10-16T04:51:21;12.70;99.90
13638;DHT22;6892;50.916;4.356;2022-10-16T04:53:49;12.70;99.90
13638;DHT22;6892;50.916;4.356;2022-10-16T04:56:16;12.70;99.90
13638;DHT22;6892;50.916;4.356;2022-10-16T04:58:42;12.60;99.90
13638;DHT22;6892;50.916;4.356;2022-10-16T05:01:09;12.60;99.90
13638;DHT22;6892;50.916;4.356;2022-10-16T05:03:36;12.60;99.90
13638;DHT22;6892;50.916;4.356;2022-10-16T05:06:04;12.60;99.90
13638;DHT22;6892;50.916;4.356;2022-10-16T05:08:31;12.60;99.90
13638;DHT22;6892;50.916;4.356;2022-10-16T05:10:59;12.60;99.90
13638;DHT22;6892;50.916;4.356;2022-10-16T05:13:27;12.60;99.90
13638;DHT22;6892;50.916;4.356;2022-10-16T05:15:53;12.60;99.90
13638;DHT22;6892;50.916;4.356;2022-10-16T05:18:20;12.60;99.90
13638;DHT22;6892;50.916;4.356;2022-10-16T05:20:47;12.60;99.90
13638;DHT22;6892;50.916;4.356;2022-10-16T05:23:14;12.60;99.90
13638;DHT22;6892;50.916;4.356;2022-10-16T05:25:40;12.60;99.90
13638;DHT22;6892;50.916;4.356;2022-10-16T05:28:08;12.50;99.90
13638;DHT22;6892;50.916;4.356;2022-10-16T05:30:36;12.50;99.90
13638;DHT22;6892;50.916;4.356;2022-10-16T05:33:03;12.50;99.90
13638;DHT22;6892;50.916;4.356;2022-10-16T05:35:30;12.50;99.90
13638;DHT22;6892;50.916;4.356;2022-10-16T05:37:56;12.50;99.90
13638;DHT22;6892;50.916;4.356;2022-10-16T05:40:23;12.50;99.90
13638;DHT22;6892;50.916;4.356;2022-10-16T05:42:54;12.50;99.90
13638;DHT22;6892;50.916;4.356;2022-10-16T05:45:22;12.50;99.90
13638;DHT22;6892;50.916;4.356;2022-10-16T05:47:48;12.50;99.90
13638;DHT22;6892;50.916;4.356;2022-10-16T05:50:15;12.50;99.90
13638;DHT22;6892;50.916;4.356;2022-10-16T05:52:42;12.50;99.90
13638;DHT22;6892;50.916;4.356;2022-10-16T05:55:08;12.50;99.90
13638;DHT22;6892;50.916;4.356;2022-10-16T05:57:35;12.50;99.90
13638;DHT22;6892;50.916;4.356;2022-10-16T06:00:02;12.50;99.90
13638;DHT22;6892;50.916;4.356;2022-10-16T06:02:31;12.50;99.90
13638;DHT22;6892;50.916;4.356;2022-10-16T06:04:57;12.50;99.90
13638;DHT22;6892;50.916;4.356;2022-10-16T06:07:24;12.40;99.90
13638;DHT22;6892;50.916;4.356;2022-10-16T06:09:51;12.50;99.90
13638;DHT22;6892;50.916;4.356;2022-10-16T06:12:18;12.50;99.90
13638;DHT22;6892;50.916;4.356;2022-10-16T06:14:45;12.60;99.90
13638;DHT22;6892;50.916;4.356;2022-10-16T06:17:13;12.60;99.90
13638;DHT22;6892;50.916;4.356;2022-10-16T06:19:41;12.70;99.90
13638;DHT22;6892;50.916;4.356;2022-10-16T06:22:08;12.70;99.90
13638;DHT22;6892;50.916;4.356;2022-10-16T06:24:34;12.80;99.90
13638;DHT22;6892;50.916;4.356;2022-10-16T06:27:01;12.80;99.90
13638;DHT22;6892;50.916;4.356;2022-10-16T06:29:29;12.90;99.90
13638;DHT22;6892;50.916;4.356;2022-10-16T06:31:55;12.80;99.90
13638;DHT22;6892;50.916;4.356;2022-10-16T06:34:22;12.90;99.90
13638;DHT22;6892;50.916;4.356;2022-10-16T06:36:50;12.90;99.90
13638;DHT22;6892;50.916;4.356;2022-10-16T06:39:17;12.90;99.90
13638;DHT22;6892;50.916;4.356;2022-10-16T06:41:44;12.90;99.90
13638;DHT22;6892;50.916;4.356;2022-10-16T06:44:10;13.00;99.90
13638;DHT22;6892;50.916;4.356;2022-10-16T06:46:37;13.10;99.90
13638;DHT22;6892;50.916;4.356;2022-10-16T06:49:04;13.50;99.90
13638;DHT22;6892;50.916;4.356;2022-10-16T06:51:31;14.10;99.90
13638;DHT22;6892;50.916;4.356;2022-10-16T06:54:01;14.70;99.90
13638;DHT22;6892;50.916;4.356;2022-10-16T06:56:29;15.20;99.90
13638;DHT22;6892;50.916;4.356;2022-10-16T06:58:56;15.30;99.90
13638;DHT22;6892;50.916;4.356;2022-10-16T07:01:23;15.30;99.90
13638;DHT22;6892;50.916;4.356;2022-10-16T07:03:50;15.10;99.90
13638;DHT22;6892;50.916;4.356;2022-10-16T07:06:18;14.60;99.90
13638;DHT22;6892;50.916;4.356;2022-10-16T07:08:45;14.30;99.90
13638;DHT22;6892;50.916;4.356;2022-10-16T07:11:15;14.20;99.90
13638;DHT22;6892;50.916;4.356;2022-10-16T07:13:44;14.00;99.90
13638;DHT22;6892;50.916;4.356;2022-10-16T07:16:11;13.90;99.90
13638;DHT22;6892;50.916;4.356;2022-10-16T07:18:38;14.00;99.90
13638;DHT22;6892;50.916;4.356;2022-10-16T07:21:07;14.00;99.90
13638;DHT22;6892;50.916;4.356;2022-10-16T07:23:34;14.00;99.90
13638;DHT22;6892;50.916;4.356;2022-10-16T07:26:00;14.00;99.90
13638;DHT22;6892;50.916;4.356;2022-10-16T07:28:29;13.90;99.90
13638;DHT22;6892;50.916;4.356;2022-10-16T07:30:59;13.90;99.90
13638;DHT22;6892;50.916;4.356;2022-10-16T07:33:26;13.90;99.90
13638;DHT22;6892;50.916;4.356;2022-10-16T07:35:53;13.90;99.90
13638;DHT22;6892;50.916;4.356;2022-10-16T07:38:21;13.90;99.90
13638;DHT22;6892;50.916;4.356;2022-10-16T07:40:48;13.90;99.90
13638;DHT22;6892;50.916;4.356;2022-10-16T07:43:15;14.00;99.90
13638;DHT22;6892;50.916;4.356;2022-10-16T07:45:49;14.00;99.90
13638;DHT22;6892;50.916;4.356;2022-10-16T07:48:16;14.10;99.90
13638;DHT22;6892;50.916;4.356;2022-10-16T07:50:44;14.10;99.90
13638;DHT22;6892;50.916;4.356;2022-10-16T07:53:11;14.10;99.90
13638;DHT22;6892;50.916;4.356;2022-10-16T07:55:38;14.20;99.90
13638;DHT22;6892;50.916;4.356;2022-10-16T07:58:05;14.30;99.90
13638;DHT22;6892;50.916;4.356;2022-10-16T08:00:32;14.40;99.90
13638;DHT22;6892;50.916;4.356;2022-10-16T08:03:00;14.50;99.90
13638;DHT22;6892;50.916;4.356;2022-10-16T08:05:27;14.50;99.90
13638;DHT22;6892;50.916;4.356;2022-10-16T08:07:54;14.60;99.90
13638;DHT22;6892;50.916;4.356;2022-10-16T08:10:22;14.70;99.90
13638;DHT22;6892;50.916;4.356;2022-10-16T08:12:49;14.80;99.90
13638;DHT22;6892;50.916;4.356;2022-10-16T08:15:16;14.80;99.90
13638;DHT22;6892;50.916;4.356;2022-10-16T08:17:43;14.80;99.90
13638;DHT22;6892;50.916;4.356;2022-10-16T08:20:11;14.90;99.90
13638;DHT22;6892;50.916;4.356;2022-10-16T08:22:38;15.00;99.90
13638;DHT22;6892;50.916;4.356;2022-10-16T08:25:05;15.10;99.90
13638;DHT22;6892;50.916;4.356;2022-10-16T08:27:32;15.10;99.90
13638;DHT22;6892;50.916;4.356;2022-10-16T08:30:00;15.10;99.90
13638;DHT22;6892;50.916;4.356;2022-10-16T08:32:27;15.20;99.90
13638;DHT22;6892;50.916;4.356;2022-10-16T08:34:53;15.20;99.90
13638;DHT22;6892;50.916;4.356;2022-10-16T08:37:21;15.30;99.90
13638;DHT22;6892;50.916;4.356;2022-10-16T08:39:48;15.30;99.90
13638;DHT22;6892;50.916;4.356;2022-10-16T08:42:17;15.40;99.90
13638;DHT22;6892;50.916;4.356;2022-10-16T08:47:33;15.50;99.90
13638;DHT22;6892;50.916;4.356;2022-10-16T08:50:02;15.60;99.90
13638;DHT22;6892;50.916;4.356;2022-10-16T08:52:38;15.60;99.90
13638;DHT22;6892;50.916;4.356;2022-10-16T08:55:05;15.60;99.90
13638;DHT22;6892;50.916;4.356;2022-10-16T08:57:32;15.70;99.90
13638;DHT22;6892;50.916;4.356;2022-10-16T09:00:08;15.80;99.90
13638;DHT22;6892;50.916;4.356;2022-10-16T09:02:38;15.90;99.90
13638;DHT22;6892;50.916;4.356;2022-10-16T09:05:23;16.00;99.90
13638;DHT22;6892;50.916;4.356;2022-10-16T09:07:56;16.00;99.90
13638;DHT22;6892;50.916;4.356;2022-10-16T09:10:27;16.10;99.90
13638;DHT22;6892;50.916;4.356;2022-10-16T09:13:00;16.10;99.90
13638;DHT22;6892;50.916;4.356;2022-10-16T09:15:29;16.30;99.90
13638;DHT22;6892;50.916;4.356;2022-10-16T09:17:59;16.30;99.90
13638;DHT22;6892;50.916;4.356;2022-10-16T09:20:31;16.30;99.90
13638;DHT22;6892;50.916;4.356;2022-10-16T09:23:10;16.40;99.90
13638;DHT22;6892;50.916;4.356;2022-10-16T09:25:39;16.40;99.90
13638;DHT22;6892;50.916;4.356;2022-10-16T09:28:07;16.40;99.90
13638;DHT22;6892;50.916;4.356;2022-10-16T09:30:34;16.40;99.90
13638;DHT22;6892;50.916;4.356;2022-10-16T09:33:01;16.50;23.30
13638;DHT22;6892;50.916;4.356;2022-10-16T09:35:31;16.50;10.80
13638;DHT22;6892;50.916;4.356;2022-10-16T09:37:58;16.60;21.10
13638;DHT22;6892;50.916;4.356;2022-10-16T09:40:26;16.70;1.00
13638;DHT22;6892;50.916;4.356;2022-10-16T09:42:56;16.70;1.00
13638;DHT22;6892;50.916;4.356;2022-10-16T09:45:24;16.70;1.00
13638;DHT22;6892;50.916;4.356;2022-10-16T09:47:50;16.70;1.00
13638;DHT22;6892;50.916;4.356;2022-10-16T09:50:21;16.80;1.00
13638;DHT22;6892;50.916;4.356;2022-10-16T09:52:48;16.80;1.00
13638;DHT22;6892;50.916;4.356;2022-10-16T09:55:16;16.70;1.00
13638;DHT22;6892;50.916;4.356;2022-10-16T09:57:49;16.60;1.00
13638;DHT22;6892;50.916;4.356;2022-10-16T10:00:17;16.80;1.00
13638;DHT22;6892;50.916;4.356;2022-10-16T10:02:44;16.90;1.00
13638;DHT22;6892;50.916;4.356;2022-10-16T10:05:17;17.10;1.00
13638;DHT22;6892;50.916;4.356;2022-10-16T10:07:46;17.10;1.00
13638;DHT22;6892;50.916;4.356;2022-10-16T10:10:20;17.20;1.00
13638;DHT22;6892;50.916;4.356;2022-10-16T10:12:48;17.30;1.00
13638;DHT22;6892;50.916;4.356;2022-10-16T10:15:16;17.30;1.00
13638;DHT22;6892;50.916;4.356;2022-10-16T10:17:47;17.20;1.00
13638;DHT22;6892;50.916;4.356;2022-10-16T10:20:20;17.20;1.00
13638;DHT22;6892;50.916;4.356;2022-10-16T10:22:47;17.30;1.00
13638;DHT22;6892;50.916;4.356;2022-10-16T10:25:30;17.40;1.00
13638;DHT22;6892;50.916;4.356;2022-10-16T10:28:02;17.50;1.00
13638;DHT22;6892;50.916;4.356;2022-10-16T10:30:35;17.50;1.00
13638;DHT22;6892;50.916;4.356;2022-10-16T10:33:09;17.40;1.00
13638;DHT22;6892;50.916;4.356;2022-10-16T10:35:40;17.40;1.00
13638;DHT22;6892;50.916;4.356;2022-10-16T10:38:16;17.30;1.00
13638;DHT22;6892;50.916;4.356;2022-10-16T10:40:49;17.30;1.00
13638;DHT22;6892;50.916;4.356;2022-10-16T10:43:27;17.30;1.00
13638;DHT22;6892;50.916;4.356;2022-10-16T10:45:58;17.10;1.00
13638;DHT22;6892;50.916;4.356;2022-10-16T10:48:29;16.90;1.00
13638;DHT22;6892;50.916;4.356;2022-10-16T10:51:01;16.70;1.00
13638;DHT22;6892;50.916;4.356;2022-10-16T10:53:34;16.70;1.00
13638;DHT22;6892;50.916;4.356;2022-10-16T10:56:05;16.70;1.00
13638;DHT22;6892;50.916;4.356;2022-10-16T10:58:39;16.80;1.00
13638;DHT22;6892;50.916;4.356;2022-10-16T11:01:12;17.10;1.00
13638;DHT22;6892;50.916;4.356;2022-10-16T11:06:28;17.70;1.00
13638;DHT22;6892;50.916;4.356;2022-10-16T11:08:58;17.80;1.00
13638;DHT22;6892;50.916;4.356;2022-10-16T11:11:28;18.00;1.00
13638;DHT22;6892;50.916;4.356;2022-10-16T11:13:57;18.20;1.00
13638;DHT22;6892;50.916;4.356;2022-10-16T11:16:28;18.40;1.00
13638;DHT22;6892;50.916;4.356;2022-10-16T11:18:56;18.60;1.00
13638;DHT22;6892;50.916;4.356;2022-10-16T11:21:25;18.70;1.00
13638;DHT22;6892;50.916;4.356;2022-10-16T11:23:53;18.70;1.00
13638;DHT22;6892;50.916;4.356;2022-10-16T11:26:24;18.60;1.00
13638;DHT22;6892;50.916;4.356;2022-10-16T11:28:53;18.50;1.00
13638;DHT22;6892;50.916;4.356;2022-10-16T11:31:23;18.40;1.00
13638;DHT22;6892;50.916;4.356;2022-10-16T11:33:54;18.40;1.00
13638;DHT22;6892;50.916;4.356;2022-10-16T11:36:25;18.30;1.00
13638;DHT22;6892;50.916;4.356;2022-10-16T11:38:55;18.20;1.00
13638;DHT22;6892;50.916;4.356;2022-10-16T11:41:27;18.20;1.00
13638;DHT22;6892;50.916;4.356;2022-10-16T11:44:06;18.10;1.00
13638;DHT22;6892;50.916;4.356;2022-10-16T11:46:36;18.00;1.00
13638;DHT22;6892;50.916;4.356;2022-10-16T11:49:08;17.70;1.00
13638;DHT22;6892;50.916;4.356;2022-10-16T11:51:36;17.60;1.00
13638;DHT22;6892;50.916;4.356;2022-10-16T11:54:07;17.70;1.00
13638;DHT22;6892;50.916;4.356;2022-10-16T11:56:36;17.80;1.00
13638;DHT22;6892;50.916;4.356;2022-10-16T11:59:05;17.60;1.00
13638;DHT22;6892;50.916;4.356;2022-10-16T12:01:33;17.40;1.00
13638;DHT22;6892;50.916;4.356;2022-10-16T12:04:06;17.30;1.00
13638;DHT22;6892;50.916;4.356;2022-10-16T12:06:40;17.30;1.00
13638;DHT22;6892;50.916;4.356;2022-10-16T12:09:09;17.40;1.00
13638;DHT22;6892;50.916;4.356;2022-10-16T12:11:39;17.60;1.00
13638;DHT22;6892;50.916;4.356;2022-10-16T12:14:07;17.80;1.00
13638;DHT22;6892;50.916;4.356;2022-10-16T12:16:50;18.00;1.00
13638;DHT22;6892;50.916;4.356;2022-10-16T12:19:17;18.40;1.00
13638;DHT22;6892;50.916;4.356;2022-10-16T12:21:46;18.80;1.00
13638;DHT22;6892;50.916;4.356;2022-10-16T12:24:20;19.00;1.00
13638;DHT22;6892;50.916;4.356;2022-10-16T12:26:47;19.00;1.00
13638;DHT22;6892;50.916;4.356;2022-10-16T12:29:20;18.80;1.00
13638;DHT22;6892;50.916;4.356;2022-10-16T12:31:49;18.70;1.00
13638;DHT22;6892;50.916;4.356;2022-10-16T12:34:20;18.50;1.00
13638;DHT22;6892;50.916;4.356;2022-10-16T12:36:49;18.60;1.00
13638;DHT22;6892;50.916;4.356;2022-10-16T12:39:20;18.70;1.00
13638;DHT22;6892;50.916;4.356;2022-10-16T12:41:47;18.70;1.00
13638;DHT22;6892;50.916;4.356;2022-10-16T12:44:21;18.60;1.00
13638;DHT22;6892;50.916;4.356;2022-10-16T12:46:49;18.60;1.00
13638;DHT22;6892;50.916;4.356;2022-10-16T12:51:59;18.70;1.00
13638;DHT22;6892;50.916;4.356;2022-10-16T12:54:27;18.80;1.00
13638;DHT22;6892;50.916;4.356;2022-10-16T12:57:02;18.80;1.00
13638;DHT22;6892;50.916;4.356;2022-10-16T12:59:35;18.80;1.00
13638;DHT22;6892;50.916;4.356;2022-10-16T13:02:18;18.70;1.00
13638;DHT22;6892;50.916;4.356;2022-10-16T13:05:01;18.70;1.00
13638;DHT22;6892;50.916;4.356;2022-10-16T13:07:41;18.70;1.00
13638;DHT22;6892;50.916;4.356;2022-10-16T13:10:11;18.70;1.00
13638;DHT22;6892;50.916;4.356;2022-10-16T13:12:46;18.90;1.00
13638;DHT22;6892;50.916;4.356;2022-10-16T13:15:26;19.00;1.00
13638;DHT22;6892;50.916;4.356;2022-10-16T13:17:58;19.00;1.00
13638;DHT22;6892;50.916;4.356;2022-10-16T13:20:28;18.90;1.00
13638;DHT22;6892;50.916;4.356;2022-10-16T13:23:00;18.90;1.00
13638;DHT22;6892;50.916;4.356;2022-10-16T13:25:33;18.80;29.70
13638;DHT22;6892;50.916;4.356;2022-10-16T13:28:02;18.80;37.30
13638;DHT22;6892;50.916;4.356;2022-10-16T13:30:30;18.70;38.90
13638;DHT22;6892;50.916;4.356;2022-10-16T13:32:59;18.70;99.90
13638;DHT22;6892;50.916;4.356;2022-10-16T13:35:28;18.70;99.90
13638;DHT22;6892;50.916;4.356;2022-10-16T13:38:09;18.70;99.90
13638;DHT22;6892;50.916;4.356;2022-10-16T13:40:47;18.80;99.90
13638;DHT22;6892;50.916;4.356;2022-10-16T13:43:14;18.90;99.40
13638;DHT22;6892;50.916;4.356;2022-10-16T13:45:42;19.00;99.90
13638;DHT22;6892;50.916;4.356;2022-10-16T13:48:18;18.90;99.90
13638;DHT22;6892;50.916;4.356;2022-10-16T13:50:45;18.70;82.30
13638;DHT22;6892;50.916;4.356;2022-10-16T13:53:14;18.60;99.90
13638;DHT22;6892;50.916;4.356;2022-10-16T13:55:41;18.50;58.10
13638;DHT22;6892;50.916;4.356;2022-10-16T13:58:08;18.70;99.90
13638;DHT22;6892;50.916;4.356;2022-10-16T14:00:37;18.70;99.90
13638;DHT22;6892;50.916;4.356;2022-10-16T14:03:04;18.60;99.90
13638;DHT22;6892;50.916;4.356;2022-10-16T14:05:32;18.40;1.00
13638;DHT22;6892;50.916;4.356;2022-10-16T14:07:59;18.40;1.00
13638;DHT22;6892;50.916;4.356;2022-10-16T14:10:28;18.40;1.00
13638;DHT22;6892;50.916;4.356;2022-10-16T14:12:59;18.40;1.00
13638;DHT22;6892;50.916;4.356;2022-10-16T14:15:27;18.50;1.00
13638;DHT22;6892;50.916;4.356;2022-10-16T14:17:54;18.60;1.00
13638;DHT22;6892;50.916;4.356;2022-10-16T14:20:23;18.60;1.00
13638;DHT22;6892;50.916;4.356;2022-10-16T14:22:57;18.60;1.00
13638;DHT22;6892;50.916;4.356;2022-10-16T14:25:25;18.60;1.00
13638;DHT22;6892;50.916;4.356;2022-10-16T14:27:58;18.60;1.00
13638;DHT22;6892;50.916;4.356;2022-10-16T14:30:25;18.60;1.00
13638;DHT22;6892;50.916;4.356;2022-10-16T14:32:53;18.60;1.00
13638;DHT22;6892;50.916;4.356;2022-10-16T14:35:24;18.50;1.00
13638;DHT22;6892;50.916;4.356;2022-10-16T14:37:51;18.40;1.00
13638;DHT22;6892;50.916;4.356;2022-10-16T14:40:19;18.20;1.00
13638;DHT22;6892;50.916;4.356;2022-10-16T14:42:47;18.20;1.00
13638;DHT22;6892;50.916;4.356;2022-10-16T14:45:17;18.10;1.00
13638;DHT22;6892;50.916;4.356;2022-10-16T14:47:47;18.10;1.00
13638;DHT22;6892;50.916;4.356;2022-10-16T14:50:14;18.10;1.00
13638;DHT22;6892;50.916;4.356;2022-10-16T14:52:41;18.10;1.00
13638;DHT22;6892;50.916;4.356;2022-10-16T14:55:09;18.10;1.00
13638;DHT22;6892;50.916;4.356;2022-10-16T14:57:36;18.10;1.00
13638;DHT22;6892;50.916;4.356;2022-10-16T15:00:04;18.10;1.00
13638;DHT22;6892;50.916;4.356;2022-10-16T15:02:36;18.20;1.00
13638;DHT22;6892;50.916;4.356;2022-10-16T15:05:07;18.20;1.00
13638;DHT22;6892;50.916;4.356;2022-10-16T15:07:36;18.20;1.00
13638;DHT22;6892;50.916;4.356;2022-10-16T15:10:04;18.20;1.00
13638;DHT22;6892;50.916;4.356;2022-10-16T15:12:30;18.20;1.00
13638;DHT22;6892;50.916;4.356;2022-10-16T15:14:57;18.30;1.00
13638;DHT22;6892;50.916;4.356;2022-10-16T15:17:24;18.30;1.00
13638;DHT22;6892;50.916;4.356;2022-10-16T15:19:52;18.30;1.00
13638;DHT22;6892;50.916;4.356;2022-10-16T15:22:19;18.20;1.00
13638;DHT22;6892;50.916;4.356;2022-10-16T15:24:48;18.20;1.00
13638;DHT22;6892;50.916;4.356;2022-10-16T15:27:15;18.10;1.00
13638;DHT22;6892;50.916;4.356;2022-10-16T15:29:42;18.00;1.00
13638;DHT22;6892;50.916;4.356;2022-10-16T15:32:09;18.00;1.00
13638;DHT22;6892;50.916;4.356;2022-10-16T15:34:36;18.10;1.00
13638;DHT22;6892;50.916;4.356;2022-10-16T15:37:04;18.00;1.00
13638;DHT22;6892;50.916;4.356;2022-10-16T15:39:30;18.00;1.00
13638;DHT22;6892;50.916;4.356;2022-10-16T15:42:00;17.90;1.00
13638;DHT22;6892;50.916;4.356;2022-10-16T15:44:31;17.90;1.00
13638;DHT22;6892;50.916;4.356;2022-10-16T15:47:00;17.80;1.00
13638;DHT22;6892;50.916;4.356;2022-10-16T15:49:27;17.80;1.00
13638;DHT22;6892;50.916;4.356;2022-10-16T15:51:54;17.70;1.00
13638;DHT22;6892;50.916;4.356;2022-10-16T15:54:22;17.70;1.00
13638;DHT22;6892;50.916;4.356;2022-10-16T15:56:49;17.60;1.00
13638;DHT22;6892;50.916;4.356;2022-10-16T15:59:16;17.60;1.00
13638;DHT22;6892;50.916;4.356;2022-10-16T16:01:43;17.50;1.00
13638;DHT22;6892;50.916;4.356;2022-10-16T16:04:09;17.50;1.00
13638;DHT22;6892;50.916;4.356;2022-10-16T16:06:37;17.50;1.00
13638;DHT22;6892;50.916;4.356;2022-10-16T16:09:05;17.40;1.00
13638;DHT22;6892;50.916;4.356;2022-10-16T16:11:33;17.40;1.00